sensor_id;sensor_type;location;lat;lon;timestamp;temperature;humidity
19437;DHT22;9854;50.968;4.168;2022-12-18T00:00:41;-2.50;99.90
19437;DHT22;9854;50.968;4.168;2022-12-18T00:03:07;-2.50;99.90
19437;DHT22;9854;50.968;4.168;2022-12-18T00:05:32;-2.50;99.90
19437;DHT22;9854;50.968;4.168;2022-12-18T00:07:58;-2.50;99.90
19437;DHT22;9854;50.968;4.168;2022-12-18T00:10:24;-2.60;99.90
19437;DHT22;9854;50.968;4.168;2022-12-18T00:12:49;-2.60;99.90
19437;DHT22;9854;50.968;4.168;2022-12-18T00:15:15;-2.60;99.90
19437;DHT22;9854;50.968;4.168;2022-12-18T00:17:41;-2.60;99.90
19437;DHT22;9854;50.968;4.168;2022-12-18T00:20:07;-2.60;99.90
19437;DHT22;9854;50.968;4.168;2022-12-18T00:22:33;-2.70;99.90
19437;DHT22;9854;50.968;4.168;2022-12-18T00:24:58;-2.60;99.90
19437;DHT22;9854;50.968;4.168;2022-12-18T00:27:24;-2.70;99.90
19437;DHT22;9854;50.968;4.168;2022-12-18T00:29:50;-2.70;99.90
19437;DHT22;9854;50.968;4.168;2022-12-18T00:32:15;-2.60;99.90
19437;DHT22;9854;50.968;4.168;2022-12-18T00:34:41;-2.60;99.90
19437;DHT22;9854;50.968;4.168;2022-12-18T00:37:07;-2.60;99.90
19437;DHT22;9854;50.968;4.168;2022-12-18T00:39:32;-2.60;99.90
19437;DHT22;9854;50.968;4.168;2022-12-18T00:41:58;-2.80;99.90
19437;DHT22;9854;50.968;4.168;2022-12-18T00:44:42;-2.70;99.90
19437;DHT22;9854;50.968;4.168;2022-12-18T00:47:08;-2.90;99.90
19437;DHT22;9854;50.968;4.168;2022-12-18T00:49:34;-2.80;99.90
19437;DHT22;9854;50.968;4.168;2022-12-18T00:51:59;-2.80;99.90
19437;DHT22;9854;50.968;4.168;2022-12-18T00:54:25;-2.80;99.90
19437;DHT22;9854;50.968;4.168;2022-12-18T00:56:51;-2.90;99.90
19437;DHT22;9854;50.968;4.168;2022-12-18T00:59:17;-2.90;99.90
19437;DHT22;9854;50.968;4.168;2022-12-18T01:01:44;-2.90;99.90
19437;DHT22;9854;50.968;4.168;2022-12-18T01:04:10;-2.90;99.90
19437;DHT22;9854;50.968;4.168;2022-12-18T01:06:35;-3.00;99.90
19437;DHT22;9854;50.968;4.168;2022-12-18T01:09:01;-3.00;99.90
19437;DHT22;9854;50.968;4.168;2022-12-18T01:11:27;-2.90;99.90
19437;DHT22;9854;50.968;4.168;2022-12-18T01:13:53;-2.90;99.90
19437;DHT22;9854;50.968;4.168;2022-12-18T01:16:20;-2.80;99.90
19437;DHT22;9854;50.968;4.168;2022-12-18T01:18:46;-2.90;99.90
19437;DHT22;9854;50.968;4.168;2022-12-18T01:21:14;-2.80;99.90
19437;DHT22;9854;50.968;4.168;2022-12-18T01:23:40;-3.00;99.90
19437;DHT22;9854;50.968;4.168;2022-12-18T01:26:11;-3.00;99.90
19437;DHT22;9854;50.968;4.168;2022-12-18T01:28:38;-3.00;99.90
19437;DHT22;9854;50.968;4.168;2022-12-18T01:31:20;-3.00;99.90
19437;DHT22;9854;50.968;4.168;2022-12-18T01:33:48;-3.20;99.90
19437;DHT22;9854;50.968;4.168;2022-12-18T01:38:48;-2.90;99.90
19437;DHT22;9854;50.968;4.168;2022-12-18T01:41:16;-2.80;99.90
19437;DHT22;9854;50.968;4.168;2022-12-18T01:43:55;-2.90;99.90
19437;DHT22;9854;50.968;4.168;2022-12-18T01:46:23;-3.10;99.90
19437;DHT22;9854;50.968;4.168;2022-12-18T01:48:52;-3.20;99.90
19437;DHT22;9854;50.968;4.168;2022-12-18T01:51:18;-3.20;99.90
19437;DHT22;9854;50.968;4.168;2022-12-18T01:53:45;-3.20;99.90
19437;DHT22;9854;50.968;4.168;2022-12-18T01:56:16;-3.10;99.90
19437;DHT22;9854;50.968;4.168;2022-12-18T01:58:51;-3.20;99.90
19437;DHT22;9854;50.968;4.168;2022-12-18T02:01:20;-3.30;99.90
19437;DHT22;9854;50.968;4.168;2022-12-18T02:03:46;-3.40;99.90
19437;DHT22;9854;50.968;4.168;2022-12-18T02:09:01;-3.60;99.90
19437;DHT22;9854;50.968;4.168;2022-12-18T02:11:42;-3.60;99.90
19437;DHT22;9854;50.968;4.168;2022-12-18T02:17:03;-3.70;99.90
19437;DHT22;9854;50.968;4.168;2022-12-18T02:19:53;-3.60;99.90
19437;DHT22;9854;50.968;4.168;2022-12-18T02:22:51;-3.40;99.90
19437;DHT22;9854;50.968;4.168;2022-12-18T02:27:58;-3.30;99.90
19437;DHT22;9854;50.968;4.168;2022-12-18T02:30:26;-3.40;99.90
19437;DHT22;9854;50.968;4.168;2022-12-18T02:32:55;-3.40;99.90
19437;DHT22;9854;50.968;4.168;2022-12-18T02:35:26;-3.40;99.90
19437;DHT22;9854;50.968;4.168;2022-12-18T02:37:53;-3.50;99.90
19437;DHT22;9854;50.968;4.168;2022-12-18T02:40:21;-3.40;99.90
19437;DHT22;9854;50.968;4.168;2022-12-18T02:42:47;-3.50;99.90
19437;DHT22;9854;50.968;4.168;2022-12-18T02:45:13;-3.50;99.90
19437;DHT22;9854;50.968;4.168;2022-12-18T02:47:41;-3.40;99.90
19437;DHT22;9854;50.968;4.168;2022-12-18T02:52:59;-3.70;99.90
19437;DHT22;9854;50.968;4.168;2022-12-18T03:03:47;-3.40;99.90
19437;DHT22;9854;50.968;4.168;2022-12-18T03:06:42;-3.40;99.90
19437;DHT22;9854;50.968;4.168;2022-12-18T03:09:42;-3.50;99.90
19437;DHT22;9854;50.968;4.168;2022-12-18T03:12:16;-3.70;99.90
19437;DHT22;9854;50.968;4.168;2022-12-18T03:17:32;-3.50;99.90
19437;DHT22;9854;50.968;4.168;2022-12-18T03:20:06;-3.40;99.90
19437;DHT22;9854;50.968;4.168;2022-12-18T03:22:34;-3.50;99.90
19437;DHT22;9854;50.968;4.168;2022-12-18T03:25:03;-3.60;99.90
19437;DHT22;9854;50.968;4.168;2022-12-18T03:27:31;-3.70;99.90
19437;DHT22;9854;50.968;4.168;2022-12-18T03:30:03;-3.80;99.90
19437;DHT22;9854;50.968;4.168;2022-12-18T03:32:38;-3.70;99.90
19437;DHT22;9854;50.968;4.168;2022-12-18T03:35:07;-3.80;99.90
19437;DHT22;9854;50.968;4.168;2022-12-18T03:37:33;-3.80;99.90
19437;DHT22;9854;50.968;4.168;2022-12-18T03:39:59;-3.70;99.90
19437;DHT22;9854;50.968;4.168;2022-12-18T03:42:29;-3.70;99.90
19437;DHT22;9854;50.968;4.168;2022-12-18T03:45:06;-3.70;99.90
19437;DHT22;9854;50.968;4.168;2022-12-18T03:48:37;-3.70;99.90
19437;DHT22;9854;50.968;4.168;2022-12-18T03:56:08;-3.70;99.90
19437;DHT22;9854;50.968;4.168;2022-12-18T03:58:35;-3.70;99.90
19437;DHT22;9854;50.968;4.168;2022-12-18T04:01:04;-3.60;99.90
19437;DHT22;9854;50.968;4.168;2022-12-18T04:03:32;-3.70;99.90
19437;DHT22;9854;50.968;4.168;2022-12-18T04:05:59;-3.80;99.90
19437;DHT22;9854;50.968;4.168;2022-12-18T04:08:26;-3.90;99.90
19437;DHT22;9854;50.968;4.168;2022-12-18T04:10:52;-3.90;99.90
19437;DHT22;9854;50.968;4.168;2022-12-18T04:13:44;-4.00;99.90
19437;DHT22;9854;50.968;4.168;2022-12-18T04:16:10;-4.00;99.90
19437;DHT22;9854;50.968;4.168;2022-12-18T04:18:36;-4.10;99.90
19437;DHT22;9854;50.968;4.168;2022-12-18T04:21:03;-4.20;99.90
19437;DHT22;9854;50.968;4.168;2022-12-18T04:23:28;-4.00;99.90
19437;DHT22;9854;50.968;4.168;2022-12-18T04:25:54;-4.10;99.90
19437;DHT22;9854;50.968;4.168;2022-12-18T04:28:20;-4.10;99.90
19437;DHT22;9854;50.968;4.168;2022-12-18T04:30:45;-4.20;99.90
19437;DHT22;9854;50.968;4.168;2022-12-18T04:33:13;-4.20;99.90
19437;DHT22;9854;50.968;4.168;2022-12-18T04:35:39;-4.10;99.90
19437;DHT22;9854;50.968;4.168;2022-12-18T04:38:09;-4.10;99.90
19437;DHT22;9854;50.968;4.168;2022-12-18T04:40:37;-4.00;99.90
19437;DHT22;9854;50.968;4.168;2022-12-18T04:43:04;-4.10;99.90
19437;DHT22;9854;50.968;4.168;2022-12-18T04:45:30;-4.00;99.90
19437;DHT22;9854;50.968;4.168;2022-12-18T04:47:58;-4.00;99.90
19437;DHT22;9854;50.968;4.168;2022-12-18T04:50:23;-3.70;99.90
19437;DHT22;9854;50.968;4.168;2022-12-18T04:52:49;-3.20;99.90
19437;DHT22;9854;50.968;4.168;2022-12-18T04:55:15;-3.60;99.90
19437;DHT22;9854;50.968;4.168;2022-12-18T04:57:40;-3.40;99.90
19437;DHT22;9854;50.968;4.168;2022-12-18T05:00:06;-3.20;99.90
19437;DHT22;9854;50.968;4.168;2022-12-18T05:02:32;-3.20;99.90
19437;DHT22;9854;50.968;4.168;2022-12-18T05:04:58;-3.40;99.90
19437;DHT22;9854;50.968;4.168;2022-12-18T05:07:24;-3.90;99.90
19437;DHT22;9854;50.968;4.168;2022-12-18T05:09:49;-4.20;99.90
19437;DHT22;9854;50.968;4.168;2022-12-18T05:12:15;-4.30;99.90
19437;DHT22;9854;50.968;4.168;2022-12-18T05:14:41;-4.30;99.90
19437;DHT22;9854;50.968;4.168;2022-12-18T05:17:07;-4.40;99.90
19437;DHT22;9854;50.968;4.168;2022-12-18T05:19:32;-4.40;99.90
19437;DHT22;9854;50.968;4.168;2022-12-18T05:21:58;-4.40;99.90
19437;DHT22;9854;50.968;4.168;2022-12-18T05:24:24;-4.30;99.90
19437;DHT22;9854;50.968;4.168;2022-12-18T05:26:49;-4.40;99.90
19437;DHT22;9854;50.968;4.168;2022-12-18T05:29:15;-4.20;99.90
19437;DHT22;9854;50.968;4.168;2022-12-18T05:31:40;-4.20;99.90
19437;DHT22;9854;50.968;4.168;2022-12-18T05:34:06;-4.20;99.90
19437;DHT22;9854;50.968;4.168;2022-12-18T05:36:32;-4.10;99.90
19437;DHT22;9854;50.968;4.168;2022-12-18T05:38:57;-4.10;99.90
19437;DHT22;9854;50.968;4.168;2022-12-18T05:41:23;-4.20;99.90
19437;DHT22;9854;50.968;4.168;2022-12-18T05:43:49;-4.10;99.90
19437;DHT22;9854;50.968;4.168;2022-12-18T05:46:16;-4.10;99.90
19437;DHT22;9854;50.968;4.168;2022-12-18T05:48:43;-4.00;99.90
19437;DHT22;9854;50.968;4.168;2022-12-18T05:51:12;-4.10;99.90
19437;DHT22;9854;50.968;4.168;2022-12-18T05:53:38;-4.00;99.90
19437;DHT22;9854;50.968;4.168;2022-12-18T05:56:06;-3.70;99.90
19437;DHT22;9854;50.968;4.168;2022-12-18T05:58:33;-3.50;99.90
19437;DHT22;9854;50.968;4.168;2022-12-18T06:01:18;-3.50;99.90
19437;DHT22;9854;50.968;4.168;2022-12-18T06:03:44;-3.70;99.90
19437;DHT22;9854;50.968;4.168;2022-12-18T06:06:18;-3.80;99.90
19437;DHT22;9854;50.968;4.168;2022-12-18T06:08:44;-3.90;99.90
19437;DHT22;9854;50.968;4.168;2022-12-18T06:11:09;-3.90;99.90
19437;DHT22;9854;50.968;4.168;2022-12-18T06:13:36;-3.90;99.90
19437;DHT22;9854;50.968;4.168;2022-12-18T06:16:04;-4.00;99.90
19437;DHT22;9854;50.968;4.168;2022-12-18T06:18:29;-4.00;99.90
19437;DHT22;9854;50.968;4.168;2022-12-18T06:20:56;-4.00;99.90
19437;DHT22;9854;50.968;4.168;2022-12-18T06:23:22;-3.90;99.90
19437;DHT22;9854;50.968;4.168;2022-12-18T06:25:48;-3.90;99.90
19437;DHT22;9854;50.968;4.168;2022-12-18T06:28:13;-4.00;99.90
19437;DHT22;9854;50.968;4.168;2022-12-18T06:30:39;-4.00;99.90
19437;DHT22;9854;50.968;4.168;2022-12-18T06:33:04;-4.00;99.90
19437;DHT22;9854;50.968;4.168;2022-12-18T06:35:32;-4.00;99.90
19437;DHT22;9854;50.968;4.168;2022-12-18T06:37:57;-3.90;99.90
19437;DHT22;9854;50.968;4.168;2022-12-18T06:40:23;-4.00;99.90
19437;DHT22;9854;50.968;4.168;2022-12-18T06:42:48;-4.00;99.90
19437;DHT22;9854;50.968;4.168;2022-12-18T06:45:14;-3.90;99.90
19437;DHT22;9854;50.968;4.168;2022-12-18T06:47:40;-3.90;99.90
19437;DHT22;9854;50.968;4.168;2022-12-18T06:50:06;-3.90;99.90
19437;DHT22;9854;50.968;4.168;2022-12-18T06:52:32;-4.00;99.90
19437;DHT22;9854;50.968;4.168;2022-12-18T06:54:58;-3.90;99.90
19437;DHT22;9854;50.968;4.168;2022-12-18T06:57:23;-3.80;99.90
19437;DHT22;9854;50.968;4.168;2022-12-18T06:59:49;-3.80;99.90
19437;DHT22;9854;50.968;4.168;2022-12-18T07:02:15;-3.70;99.90
19437;DHT22;9854;50.968;4.168;2022-12-18T07:04:40;-3.70;99.90
19437;DHT22;9854;50.968;4.168;2022-12-18T07:07:06;-3.70;99.90
19437;DHT22;9854;50.968;4.168;2022-12-18T07:09:31;-3.80;99.90
19437;DHT22;9854;50.968;4.168;2022-12-18T07:11:57;-3.80;99.90
19437;DHT22;9854;50.968;4.168;2022-12-18T07:14:23;-3.90;99.90
19437;DHT22;9854;50.968;4.168;2022-12-18T07:16:48;-3.90;99.90
19437;DHT22;9854;50.968;4.168;2022-12-18T07:19:14;-3.80;99.90
19437;DHT22;9854;50.968;4.168;2022-12-18T07:21:39;-3.70;99.90
19437;DHT22;9854;50.968;4.168;2022-12-18T07:24:05;-3.70;99.90
19437;DHT22;9854;50.968;4.168;2022-12-18T07:26:31;-3.70;99.90
19437;DHT22;9854;50.968;4.168;2022-12-18T07:28:57;-3.80;99.90
19437;DHT22;9854;50.968;4.168;2022-12-18T07:31:24;-3.80;99.90
19437;DHT22;9854;50.968;4.168;2022-12-18T07:33:51;-3.90;99.90
19437;DHT22;9854;50.968;4.168;2022-12-18T07:36:17;-3.60;99.90
19437;DHT22;9854;50.968;4.168;2022-12-18T07:38:42;-3.60;99.90
19437;DHT22;9854;50.968;4.168;2022-12-18T07:41:12;-3.70;99.90
19437;DHT22;9854;50.968;4.168;2022-12-18T07:43:39;-3.60;99.90
19437;DHT22;9854;50.968;4.168;2022-12-18T07:46:05;-3.70;99.90
19437;DHT22;9854;50.968;4.168;2022-12-18T07:48:31;-3.70;99.90
19437;DHT22;9854;50.968;4.168;2022-12-18T07:51:00;-3.70;99.90
19437;DHT22;9854;50.968;4.168;2022-12-18T07:53:27;-3.70;99.90
19437;DHT22;9854;50.968;4.168;2022-12-18T07:55:56;-3.80;99.90
19437;DHT22;9854;50.968;4.168;2022-12-18T07:58:22;-3.90;99.90
19437;DHT22;9854;50.968;4.168;2022-12-18T08:00:48;-3.70;99.90
19437;DHT22;9854;50.968;4.168;2022-12-18T08:03:13;-3.70;99.90
19437;DHT22;9854;50.968;4.168;2022-12-18T08:05:39;-3.50;99.90
19437;DHT22;9854;50.968;4.168;2022-12-18T08:08:05;-3.50;99.90
19437;DHT22;9854;50.968;4.168;2022-12-18T08:10:30;-3.60;99.90
19437;DHT22;9854;50.968;4.168;2022-12-18T08:12:56;-3.30;99.90
19437;DHT22;9854;50.968;4.168;2022-12-18T08:15:22;-3.40;99.90
19437;DHT22;9854;50.968;4.168;2022-12-18T08:17:47;-3.40;99.90
19437;DHT22;9854;50.968;4.168;2022-12-18T08:20:13;-3.10;99.90
19437;DHT22;9854;50.968;4.168;2022-12-18T08:22:43;-3.10;99.90
19437;DHT22;9854;50.968;4.168;2022-12-18T08:25:09;-3.10;99.90
19437;DHT22;9854;50.968;4.168;2022-12-18T08:27:35;-3.00;99.90
19437;DHT22;9854;50.968;4.168;2022-12-18T08:30:01;-3.00;99.90
19437;DHT22;9854;50.968;4.168;2022-12-18T08:32:27;-3.10;99.90
19437;DHT22;9854;50.968;4.168;2022-12-18T08:34:53;-2.70;99.90
19437;DHT22;9854;50.968;4.168;2022-12-18T08:37:19;-2.70;99.90
19437;DHT22;9854;50.968;4.168;2022-12-18T08:39:44;-2.70;99.90
19437;DHT22;9854;50.968;4.168;2022-12-18T08:42:10;-2.50;99.90
19437;DHT22;9854;50.968;4.168;2022-12-18T08:44:55;-2.70;99.90
19437;DHT22;9854;50.968;4.168;2022-12-18T08:47:20;-2.70;99.90
19437;DHT22;9854;50.968;4.168;2022-12-18T08:49:46;-2.70;99.90
19437;DHT22;9854;50.968;4.168;2022-12-18T08:52:14;-2.70;99.90
19437;DHT22;9854;50.968;4.168;2022-12-18T08:54:40;-2.60;99.90
19437;DHT22;9854;50.968;4.168;2022-12-18T08:57:06;-2.40;99.90
19437;DHT22;9854;50.968;4.168;2022-12-18T08:59:32;-2.30;99.90
19437;DHT22;9854;50.968;4.168;2022-12-18T09:01:57;-2.30;99.90
19437;DHT22;9854;50.968;4.168;2022-12-18T09:04:23;-2.20;99.90
19437;DHT22;9854;50.968;4.168;2022-12-18T09:06:49;-2.10;99.90
19437;DHT22;9854;50.968;4.168;2022-12-18T09:09:14;-1.90;99.90
19437;DHT22;9854;50.968;4.168;2022-12-18T09:11:40;-1.90;99.90
19437;DHT22;9854;50.968;4.168;2022-12-18T09:14:05;-2.10;99.90
19437;DHT22;9854;50.968;4.168;2022-12-18T09:16:32;-2.00;99.90
19437;DHT22;9854;50.968;4.168;2022-12-18T09:18:58;-1.90;99.90
19437;DHT22;9854;50.968;4.168;2022-12-18T09:21:27;-2.00;99.90
19437;DHT22;9854;50.968;4.168;2022-12-18T09:23:54;-1.90;99.90
19437;DHT22;9854;50.968;4.168;2022-12-18T09:26:21;-1.80;99.90
19437;DHT22;9854;50.968;4.168;2022-12-18T09:28:47;-1.70;99.90
19437;DHT22;9854;50.968;4.168;2022-12-18T09:31:13;-1.60;99.90
19437;DHT22;9854;50.968;4.168;2022-12-18T09:33:39;-1.40;99.90
19437;DHT22;9854;50.968;4.168;2022-12-18T09:36:07;-1.40;99.90
19437;DHT22;9854;50.968;4.168;2022-12-18T09:38:33;-1.30;99.90
19437;DHT22;9854;50.968;4.168;2022-12-18T09:41:31;-1.30;99.90
19437;DHT22;9854;50.968;4.168;2022-12-18T09:47:04;-1.20;99.90
19437;DHT22;9854;50.968;4.168;2022-12-18T09:49:34;-1.10;99.90
19437;DHT22;9854;50.968;4.168;2022-12-18T09:54:43;-0.80;99.90
19437;DHT22;9854;50.968;4.168;2022-12-18T09:57:23;-0.80;99.90
19437;DHT22;9854;50.968;4.168;2022-12-18T09:59:56;-0.60;99.90
19437;DHT22;9854;50.968;4.168;2022-12-18T10:02:25;-0.50;99.90
19437;DHT22;9854;50.968;4.168;2022-12-18T10:07:48;-0.30;99.90
19437;DHT22;9854;50.968;4.168;2022-12-18T10:10:21;-0.20;99.90
19437;DHT22;9854;50.968;4.168;2022-12-18T10:13:15;-0.10;99.90
19437;DHT22;9854;50.968;4.168;2022-12-18T10:20:52;0.10;99.90
19437;DHT22;9854;50.968;4.168;2022-12-18T10:24:13;0.10;99.90
19437;DHT22;9854;50.968;4.168;2022-12-18T10:26:27;0.20;99.90
19437;DHT22;9854;50.968;4.168;2022-12-18T10:28:53;0.20;99.90
19437;DHT22;9854;50.968;4.168;2022-12-18T10:31:23;0.30;99.90
19437;DHT22;9854;50.968;4.168;2022-12-18T10:33:49;0.30;99.90
19437;DHT22;9854;50.968;4.168;2022-12-18T10:36:15;0.40;99.90
19437;DHT22;9854;50.968;4.168;2022-12-18T10:38:41;0.40;99.90
19437;DHT22;9854;50.968;4.168;2022-12-18T10:41:24;0.50;99.90
19437;DHT22;9854;50.968;4.168;2022-12-18T10:46:36;0.70;99.90
19437;DHT22;9854;50.968;4.168;2022-12-18T10:49:04;0.80;99.90
19437;DHT22;9854;50.968;4.168;2022-12-18T10:51:32;0.80;99.90
19437;DHT22;9854;50.968;4.168;2022-12-18T10:54:03;0.90;99.90
19437;DHT22;9854;50.968;4.168;2022-12-18T10:56:31;0.90;99.90
19437;DHT22;9854;50.968;4.168;2022-12-18T10:59:06;0.90;99.90
19437;DHT22;9854;50.968;4.168;2022-12-18T11:04:33;1.00;99.90
19437;DHT22;9854;50.968;4.168;2022-12-18T11:07:02;1.00;99.90
19437;DHT22;9854;50.968;4.168;2022-12-18T11:09:34;1.00;99.90
19437;DHT22;9854;50.968;4.168;2022-12-18T11:14:54;1.10;99.90
19437;DHT22;9854;50.968;4.168;2022-12-18T11:17:22;1.20;99.90
19437;DHT22;9854;50.968;4.168;2022-12-18T11:19:57;1.20;99.90
19437;DHT22;9854;50.968;4.168;2022-12-18T11:22:29;1.30;99.90
19437;DHT22;9854;50.968;4.168;2022-12-18T11:25:18;1.30;99.90
19437;DHT22;9854;50.968;4.168;2022-12-18T11:27:56;1.40;99.90
19437;DHT22;9854;50.968;4.168;2022-12-18T11:30:34;1.40;99.90
19437;DHT22;9854;50.968;4.168;2022-12-18T11:33:20;1.40;99.90
19437;DHT22;9854;50.968;4.168;2022-12-18T11:35:50;1.40;99.90
19437;DHT22;9854;50.968;4.168;2022-12-18T11:40:49;1.60;99.90
19437;DHT22;9854;50.968;4.168;2022-12-18T11:43:23;1.60;99.90
19437;DHT22;9854;50.968;4.168;2022-12-18T11:46:04;1.60;99.90
19437;DHT22;9854;50.968;4.168;2022-12-18T11:48:34;1.70;99.90
19437;DHT22;9854;50.968;4.168;2022-12-18T11:51:04;1.60;99.90
19437;DHT22;9854;50.968;4.168;2022-12-18T11:53:30;1.60;99.90
19437;DHT22;9854;50.968;4.168;2022-12-18T11:56:29;1.60;99.90
19437;DHT22;9854;50.968;4.168;2022-12-18T12:01:42;1.80;99.90
19437;DHT22;9854;50.968;4.168;2022-12-18T12:07:30;2.20;99.90
19437;DHT22;9854;50.968;4.168;2022-12-18T12:10:08;2.50;99.90
19437;DHT22;9854;50.968;4.168;2022-12-18T12:12:51;2.40;99.90
19437;DHT22;9854;50.968;4.168;2022-12-18T12:20:49;2.90;99.90
19437;DHT22;9854;50.968;4.168;2022-12-18T12:26:13;3.00;99.90
19437;DHT22;9854;50.968;4.168;2022-12-18T12:39:37;2.80;99.90
19437;DHT22;9854;50.968;4.168;2022-12-18T12:42:09;2.70;99.90
19437;DHT22;9854;50.968;4.168;2022-12-18T12:44:59;3.00;99.90
19437;DHT22;9854;50.968;4.168;2022-12-18T12:47:31;2.90;99.90
19437;DHT22;9854;50.968;4.168;2022-12-18T12:50:01;3.10;99.90
19437;DHT22;9854;50.968;4.168;2022-12-18T12:52:38;3.30;99.90
19437;DHT22;9854;50.968;4.168;2022-12-18T12:55:13;3.50;99.90
19437;DHT22;9854;50.968;4.168;2022-12-18T12:57:46;3.50;99.90
19437;DHT22;9854;50.968;4.168;2022-12-18T13:00:16;3.60;99.90
19437;DHT22;9854;50.968;4.168;2022-12-18T13:05:38;3.60;99.90
19437;DHT22;9854;50.968;4.168;2022-12-18T13:08:11;3.30;99.90
19437;DHT22;9854;50.968;4.168;2022-12-18T13:10:42;3.30;99.90
19437;DHT22;9854;50.968;4.168;2022-12-18T13:13:11;3.40;99.90
19437;DHT22;9854;50.968;4.168;2022-12-18T13:15:50;3.50;99.90
19437;DHT22;9854;50.968;4.168;2022-12-18T13:18:28;3.40;99.90
19437;DHT22;9854;50.968;4.168;2022-12-18T13:31:14;3.10;99.90
19437;DHT22;9854;50.968;4.168;2022-12-18T13:33:43;3.10;99.90
19437;DHT22;9854;50.968;4.168;2022-12-18T13:38:41;2.90;99.90
19437;DHT22;9854;50.968;4.168;2022-12-18T13:41:25;2.70;99.90
19437;DHT22;9854;50.968;4.168;2022-12-18T13:43:57;2.80;99.90
19437;DHT22;9854;50.968;4.168;2022-12-18T13:46:46;2.90;99.90
19437;DHT22;9854;50.968;4.168;2022-12-18T13:51:43;3.00;99.90
19437;DHT22;9854;50.968;4.168;2022-12-18T13:56:47;3.00;99.90
19437;DHT22;9854;50.968;4.168;2022-12-18T13:59:20;3.00;99.90
19437;DHT22;9854;50.968;4.168;2022-12-18T14:01:52;2.60;99.90
19437;DHT22;9854;50.968;4.168;2022-12-18T14:04:29;2.70;99.90
19437;DHT22;9854;50.968;4.168;2022-12-18T14:06:58;2.90;99.90
19437;DHT22;9854;50.968;4.168;2022-12-18T14:09:29;2.60;99.90
19437;DHT22;9854;50.968;4.168;2022-12-18T14:11:56;2.60;99.90
19437;DHT22;9854;50.968;4.168;2022-12-18T14:14:45;2.80;99.90
19437;DHT22;9854;50.968;4.168;2022-12-18T14:17:13;2.70;99.90
19437;DHT22;9854;50.968;4.168;2022-12-18T14:19:49;2.80;99.90
19437;DHT22;9854;50.968;4.168;2022-12-18T14:22:21;2.80;99.90
19437;DHT22;9854;50.968;4.168;2022-12-18T14:24:47;2.60;99.90
19437;DHT22;9854;50.968;4.168;2022-12-18T14:27:29;2.50;99.90
19437;DHT22;9854;50.968;4.168;2022-12-18T14:29:55;2.60;99.90
19437;DHT22;9854;50.968;4.168;2022-12-18T14:32:21;2.50;99.90
19437;DHT22;9854;50.968;4.168;2022-12-18T14:34:49;2.40;99.90
19437;DHT22;9854;50.968;4.168;2022-12-18T14:37:20;2.40;99.90
19437;DHT22;9854;50.968;4.168;2022-12-18T14:42:23;2.30;99.90
19437;DHT22;9854;50.968;4.168;2022-12-18T14:47:59;2.30;99.90
19437;DHT22;9854;50.968;4.168;2022-12-18T14:50:25;2.40;99.90
19437;DHT22;9854;50.968;4.168;2022-12-18T14:52:52;2.30;99.90
19437;DHT22;9854;50.968;4.168;2022-12-18T14:55:19;2.40;99.90
19437;DHT22;9854;50.968;4.168;2022-12-18T14:57:46;2.30;99.90
19437;DHT22;9854;50.968;4.168;2022-12-18T15:00:17;2.10;99.90
19437;DHT22;9854;50.968;4.168;2022-12-18T15:02:46;2.20;99.90
19437;DHT22;9854;50.968;4.168;2022-12-18T15:05:27;2.20;99.90
19437;DHT22;9854;50.968;4.168;2022-12-18T15:07:55;2.30;99.90
19437;DHT22;9854;50.968;4.168;2022-12-18T15:10:23;2.40;99.90
19437;DHT22;9854;50.968;4.168;2022-12-18T15:23:50;2.60;99.90
19437;DHT22;9854;50.968;4.168;2022-12-18T15:26:18;2.70;99.90
19437;DHT22;9854;50.968;4.168;2022-12-18T15:36:20;2.60;99.90
19437;DHT22;9854;50.968;4.168;2022-12-18T15:38:48;2.60;99.90
19437;DHT22;9854;50.968;4.168;2022-12-18T15:41:16;2.60;99.90
19437;DHT22;9854;50.968;4.168;2022-12-18T15:43:42;2.70;99.90
19437;DHT22;9854;50.968;4.168;2022-12-18T15:46:16;2.60;99.90
19437;DHT22;9854;50.968;4.168;2022-12-18T15:48:49;2.50;99.90
19437;DHT22;9854;50.968;4.168;2022-12-18T15:51:31;2.60;99.90
19437;DHT22;9854;50.968;4.168;2022-12-18T15:54:03;2.70;99.90
19437;DHT22;9854;50.968;4.168;2022-12-18T15:56:29;2.80;99.90
19437;DHT22;9854;50.968;4.168;2022-12-18T15:59:16;3.10;99.90
19437;DHT22;9854;50.968;4.168;2022-12-18T16:01:45;3.00;99.90
19437;DHT22;9854;50.968;4.168;2022-12-18T16:04:13;3.10;99.90
19437;DHT22;9854;50.968;4.168;2022-12-18T16:06:39;3.40;99.90
19437;DHT22;9854;50.968;4.168;2022-12-18T16:09:05;3.40;99.90
19437;DHT22;9854;50.968;4.168;2022-12-18T16:11:32;3.40;99.90
19437;DHT22;9854;50.968;4.168;2022-12-18T16:14:21;3.50;99.90
19437;DHT22;9854;50.968;4.168;2022-12-18T16:16:51;3.20;99.90
19437;DHT22;9854;50.968;4.168;2022-12-18T16:19:17;3.30;99.90
19437;DHT22;9854;50.968;4.168;2022-12-18T16:21:43;3.20;99.90
19437;DHT22;9854;50.968;4.168;2022-12-18T16:24:20;3.20;99.90
19437;DHT22;9854;50.968;4.168;2022-12-18T16:26:47;3.20;99.90
19437;DHT22;9854;50.968;4.168;2022-12-18T16:29:14;3.20;99.90
19437;DHT22;9854;50.968;4.168;2022-12-18T16:31:42;3.20;99.90
19437;DHT22;9854;50.968;4.168;2022-12-18T16:34:19;3.10;99.90
19437;DHT22;9854;50.968;4.168;2022-12-18T16:36:49;3.20;99.90
19437;DHT22;9854;50.968;4.168;2022-12-18T16:39:15;3.10;99.90
19437;DHT22;9854;50.968;4.168;2022-12-18T16:41:41;3.10;99.90
19437;DHT22;9854;50.968;4.168;2022-12-18T16:44:07;3.20;99.90
19437;DHT22;9854;50.968;4.168;2022-12-18T16:46:32;3.20;99.90
19437;DHT22;9854;50.968;4.168;2022-12-18T16:48:59;3.30;99.90
19437;DHT22;9854;50.968;4.168;2022-12-18T16:51:26;3.00;99.90
19437;DHT22;9854;50.968;4.168;2022-12-18T16:53:55;3.10;99.90
19437;DHT22;9854;50.968;4.168;2022-12-18T16:56:23;3.20;99.90
19437;DHT22;9854;50.968;4.168;2022-12-18T16:58:53;3.30;99.90
19437;DHT22;9854;50.968;4.168;2022-12-18T17:01:19;3.30;99.90
19437;DHT22;9854;50.968;4.168;2022-12-18T17:03:51;3.30;99.90
19437;DHT22;9854;50.968;4.168;2022-12-18T17:06:18;3.20;99.90
19437;DHT22;9854;50.968;4.168;2022-12-18T17:08:43;3.20;99.90
19437;DHT22;9854;50.968;4.168;2022-12-18T17:11:09;3.20;99.90
19437;DHT22;9854;50.968;4.168;2022-12-18T17:13:34;3.20;99.90
19437;DHT22;9854;50.968;4.168;2022-12-18T17:16:07;3.20;99.90
19437;DHT22;9854;50.968;4.168;2022-12-18T17:18:34;3.30;99.90
19437;DHT22;9854;50.968;4.168;2022-12-18T17:21:00;3.30;99.90
19437;DHT22;9854;50.968;4.168;2022-12-18T17:23:27;3.30;99.90
19437;DHT22;9854;50.968;4.168;2022-12-18T17:25:57;3.30;99.90
19437;DHT22;9854;50.968;4.168;2022-12-18T17:28:25;3.40;99.90
19437;DHT22;9854;50.968;4.168;2022-12-18T17:30:51;3.40;99.90
19437;DHT22;9854;50.968;4.168;2022-12-18T17:33:18;3.30;99.90
19437;DHT22;9854;50.968;4.168;2022-12-18T17:35:43;3.30;99.90
19437;DHT22;9854;50.968;4.168;2022-12-18T17:38:09;3.00;99.90
19437;DHT22;9854;50.968;4.168;2022-12-18T17:40:37;3.10;99.90
19437;DHT22;9854;50.968;4.168;2022-12-18T17:43:05;3.30;99.90
19437;DHT22;9854;50.968;4.168;2022-12-18T17:45:33;3.30;99.90
19437;DHT22;9854;50.968;4.168;2022-12-18T17:47:59;3.20;99.90
19437;DHT22;9854;50.968;4.168;2022-12-18T17:50:24;3.20;99.90
19437;DHT22;9854;50.968;4.168;2022-12-18T17:52:55;3.10;99.90
19437;DHT22;9854;50.968;4.168;2022-12-18T17:55:21;3.10;99.90
19437;DHT22;9854;50.968;4.168;2022-12-18T17:57:46;3.20;99.90
19437;DHT22;9854;50.968;4.168;2022-12-18T18:00:12;3.30;99.90
19437;DHT22;9854;50.968;4.168;2022-12-18T18:02:38;3.40;99.90
19437;DHT22;9854;50.968;4.168;2022-12-18T18:05:04;3.40;99.90
19437;DHT22;9854;50.968;4.168;2022-12-18T18:07:29;3.30;99.90
19437;DHT22;9854;50.968;4.168;2022-12-18T18:09:55;3.20;99.90